Kotara, New South Wales

5:23 AM AEST on July 03, 2015 (GMT +1000)
Adamstown Heights | | Change Station
CLOSE
Current Station
Personal Weather Station
Location: Adamstown Heights, NSW
Elevation: 160 ft
Nearby Weather Stations

Elev 160 ft 32.95 °S, 151.70 °E | Updated 1 minute ago

Clear
Clear
44.7 °F
Feels Like 45 °F
N
-
Wind Variable Wind from North

Today
High -- | Low -- °F
--% Chance of Precip.
Yesterday
High -- | Low -- °F
Precip. -- in
6:56 AM 4:58 PM
Full, 99% visible
Pressure 30.21 in
Visibility 6.2 miles
Clouds
Windchill 45 °F
Dew Point 26 °F
Humidity 48%
Rainfall 0.00 in
Snow Depth Not available.
UV Not available.
Pollen Not available.
Air Quality Not available.
Flu Activity Not available.
METAR YWLM 021900Z AUTO 30008KT 9999 // NCD 06/01 Q1023

More Conditions Fewer Conditions

Pressure 30.21 in
Visibility 6.2 miles
Clouds
Windchill 45 °F
Dew Point 26 °F
Humidity 48%
Rainfall 0.00 in
Snow Depth Not available.
UV Not available.
Pollen Not available.
Air Quality Not available.
Flu Activity Not available.
METAR YWLM 021900Z AUTO 30008KT 9999 // NCD 06/01 Q1023

More Conditions Fewer Conditions

10-Day Weather Forecast

×

Almanac

Astronomy

Jul. 03, 2015 Rise Set
Actual Time
Civil Twilight
Nautical Twilight
Astronomical Twilight
Moon
Length of Visible Light
Length of Day
Tomorrow will be .
, % of the Moon is Illuminated

Today's Extremes

Country Highs Country Lows

Community

WunderPhotos

Upload Photos

1,834,519 photos uploaded!

WunderBlogs® & News

Nearby

Air Quality

  Air Quality AQ Index Pollutant
Not available.

Snow Depth

Station Depth Elevation

Earthquake Activity

City Distance Mag. Time & Date
Minimum magnitude displayed is 2.5.

Coastal Water Temperatures

Place Temperature

Stations

Nearby Weather Stations

Station Location Temp. Windchill Dew Point Humidity Wind Precip. Elev Updated Type